Time;durP1;ratioP1;P1;durP2;ratioP2;P2;SDS_P1;SDS_P2;PMS_P1;PMS_P2;Temp;Humidity;BMP_temperature;BMP_pressure;BME280_temperature;BME280_humidity;BME280_pressure;Samples;Min_cycle;Max_cycle;Signal;HPM_P1;HPM_P2
2023/12/04 00:02:30;;;;;;;48.00;20.70;;;;;;;;;;6252644;22;20035;-96
2023/12/04 00:04:59;;;;;;;46.42;22.00;;;;;;;;;;6253434;22;20003;-94
2023/12/04 00:13:49;;;;;;;47.15;20.48;;;;;;;;;;6126911;23;20097;-95
2023/12/04 00:16:15;;;;;;;40.75;19.15;;;;;;;;;;6102648;23;20406;-93
2023/12/04 00:18:43;;;;;;;43.53;19.63;;;;;;;;;;6102664;23;20428;-96
2023/12/04 00:21:13;;;;;;;54.90;21.73;;;;;;;;;;6108776;23;20424;-94
2023/12/04 00:23:48;;;;;;;46.13;20.25;;;;;;;;;;6112480;23;20006;-95
2023/12/04 00:26:23;;;;;;;44.53;19.88;;;;;;;;;;6106004;23;20065;-93
2023/12/04 00:28:52;;;;;;;50.05;20.35;;;;;;;;;;6098597;23;20010;-95
2023/12/04 00:31:24;;;;;;;41.45;19.95;;;;;;;;;;6073002;23;20002;-94
2023/12/04 00:33:56;;;;;;;42.97;19.00;;;;;;;;;;6072701;23;20026;-95
2023/12/04 00:36:49;;;;;;;;;;;;;;;;;;;;;
2023/12/04 00:39:22;;;;;;;51.72;21.52;;;;;;;;;;6248594;23;20066;-95
2023/12/04 00:41:53;;;;;;;50.55;21.50;;;;;;;;;;6221619;23;20054;-95
2023/12/04 00:47:14;;;;;;;50.85;21.13;;;;;;;;;;6216940;23;20023;-96
2023/12/04 00:49:52;;;;;;;49.90;21.33;;;;;;;;;;6216237;23;20005;-94
2023/12/04 00:52:24;;;;;;;42.22;19.27;;;;;;;;;;6216509;23;20044;-95
2023/12/04 00:54:56;;;;;;;38.28;16.48;;;;;;;;;;6216253;23;20028;-93
2023/12/04 01:03:10;;;;;;;47.25;19.10;;;;;;;;;;6247193;22;20517;-96
2023/12/04 01:05:39;;;;;;;39.92;17.02;;;;;;;;;;6221585;23;20074;-93
2023/12/04 01:08:08;;;;;;;42.47;17.88;;;;;;;;;;6221188;23;20373;-94
2023/12/04 01:10:43;;;;;;;43.17;17.92;;;;;;;;;;6221895;23;20007;-95
2023/12/04 01:13:16;;;;;;;49.58;19.33;;;;;;;;;;6229320;23;20004;-95
2023/12/04 01:15:46;;;;;;;53.88;19.45;;;;;;;;;;6230580;23;20068;-93
2023/12/04 01:18:24;;;;;;;52.63;19.95;;;;;;;;;;6229336;23;20052;-96
2023/12/04 01:21:12;;;;;;;50.15;19.38;;;;;;;;;;6229584;23;20011;-93
2023/12/04 01:23:41;;;;;;;52.65;20.17;;;;;;;;;;6222916;23;20009;-94
2023/12/04 01:26:07;;;;;;;48.58;17.10;;;;;;;;;;6222240;23;20007;-94
2023/12/04 01:28:56;;;;;;;56.70;20.75;;;;;;;;;;6218008;23;20011;-93
2023/12/04 01:31:25;;;;;;;59.33;23.08;;;;;;;;;;6228428;23;20008;-95
2023/12/04 01:34:15;;;;;;;56.33;21.08;;;;;;;;;;6222449;23;20035;-95
2023/12/04 01:36:53;;;;;;;42.28;18.10;;;;;;;;;;6221864;23;20008;-95
2023/12/04 01:39:22;;;;;;;40.03;17.98;;;;;;;;;;6222592;23;20008;-94
2023/12/04 01:41:55;;;;;;;46.03;17.63;;;;;;;;;;6221120;23;20034;-94
2023/12/04 01:44:27;;;;;;;44.80;18.35;;;;;;;;;;6220933;23;20007;-94
2023/12/04 01:46:54;;;;;;;44.08;18.25;;;;;;;;;;6222789;23;20004;-92
2023/12/04 01:56:11;;;;;;;42.80;19.60;;;;;;;;;;6100157;23;20080;-92
2023/12/04 02:04:23;;;;;;;53.85;21.70;;;;;;;;;;6280105;22;20061;-95
2023/12/04 02:06:55;;;;;;;47.15;19.63;;;;;;;;;;6260831;22;20030;-95
2023/12/04 02:09:24;;;;;;;37.05;16.30;;;;;;;;;;6261163;22;20030;-93
2023/12/04 02:11:52;;;;;;;42.70;18.13;;;;;;;;;;6257188;22;20004;-94
2023/12/04 02:14:22;;;;;;;41.35;18.15;;;;;;;;;;6258191;22;20030;-95
2023/12/04 02:16:51;;;;;;;41.85;16.77;;;;;;;;;;6279014;22;20395;-94
2023/12/04 02:19:24;;;;;;;38.55;15.82;;;;;;;;;;6277230;22;20006;-95
2023/12/04 02:21:54;;;;;;;47.35;19.35;;;;;;;;;;6277057;22;20007;-95
2023/12/04 02:24:26;;;;;;;42.50;18.92;;;;;;;;;;6276815;22;20014;-95
2023/12/04 02:26:59;;;;;;;50.13;22.30;;;;;;;;;;6277282;22;20444;-94
2023/12/04 02:29:47;;;;;;;50.60;22.70;;;;;;;;;;6277198;22;20337;-94
2023/12/04 02:32:22;;;;;;;49.25;20.02;;;;;;;;;;6278225;22;20245;-94
2023/12/04 02:35:01;;;;;;;41.03;18.63;;;;;;;;;;6277168;22;20019;-95
2023/12/04 02:38:09;;;;;;;36.13;16.63;;;;;;;;;;6245762;23;20007;-95
2023/12/04 02:40:45;;;;;;;40.08;16.65;;;;;;;;;;6160025;23;20005;-94
2023/12/04 02:46:20;;;;;;;35.65;15.77;;;;;;;;;;6245438;23;20019;-95
2023/12/04 02:54:55;;;;;;;32.40;14.02;;;;;;;;;;6280217;22;20031;-95
2023/12/04 03:00:44;;;;;;;31.10;13.00;;;;;;;;;;6167895;23;20049;-94
2023/12/04 03:03:20;;;;;;;28.20;12.65;;;;;;;;;;6142026;23;20009;-95
2023/12/04 03:05:52;;;;;;;28.58;11.73;;;;;;;;;;6137286;23;20002;-93
2023/12/04 03:08:43;;;;;;;30.25;12.88;;;;;;;;;;6134050;23;20006;-96
2023/12/04 03:11:54;;;;;;;26.15;11.38;;;;;;;;;;6139030;23;20030;-95
2023/12/04 03:14:23;;;;;;;28.90;11.57;;;;;;;;;;6018873;23;20019;-96
2023/12/04 03:17:07;;;;;;;27.40;12.30;;;;;;;;;;6039186;23;20011;-96
2023/12/04 03:20:08;;;;;;;29.67;12.55;;;;;;;;;;6119124;23;20094;-93
2023/12/04 03:25:55;;;;;;;28.08;12.63;;;;;;;;;;6282725;22;20122;-94
2023/12/04 03:28:21;;;;;;;26.80;12.05;;;;;;;;;;6255447;22;20084;-94
2023/12/04 03:30:47;;;;;;;31.85;13.77;;;;;;;;;;6254800;22;20003;-94
2023/12/04 03:33:16;;;;;;;27.00;12.00;;;;;;;;;;6255112;22;20121;-96
2023/12/04 03:38:59;;;;;;;29.20;12.10;;;;;;;;;;6130035;23;20010;-94
2023/12/04 03:41:50;;;;;;;;;;;;;;;;;;;;;
2023/12/04 03:44:34;;;;;;;26.17;11.43;;;;;;;;;;6280138;22;20067;-94
2023/12/04 03:50:19;;;;;;;38.67;15.35;;;;;;;;;;6136929;23;20045;-96
2023/12/04 03:53:11;;;;;;;36.88;13.98;;;;;;;;;;6265356;22;20003;-96
2023/12/04 04:10:21;;;;;;;37.20;16.30;;;;;;;;;;6289136;22;19906;-95
2023/12/04 04:12:47;;;;;;;34.92;15.10;;;;;;;;;;6258546;22;20007;-95
2023/12/04 04:21:24;;;;;;;34.42;14.35;;;;;;;;;;6286488;22;20011;-95
2023/12/04 04:24:06;;;;;;;36.30;15.00;;;;;;;;;;6257709;22;20067;-96
2023/12/04 04:29:58;;;;;;;34.13;15.10;;;;;;;;;;6283873;22;20018;-95
2023/12/04 04:32:27;;;;;;;33.65;14.25;;;;;;;;;;6253852;22;20071;-95
2023/12/04 04:34:53;;;;;;;38.28;15.23;;;;;;;;;;6253226;22;20019;-95
2023/12/04 04:40:48;;;;;;;35.60;14.65;;;;;;;;;;6286185;22;20024;-96
2023/12/04 04:43:14;;;;;;;30.70;13.73;;;;;;;;;;6102735;23;20010;-94
2023/12/04 04:45:44;;;;;;;30.27;12.38;;;;;;;;;;6119609;23;20010;-94
2023/12/04 04:48:28;;;;;;;29.58;13.13;;;;;;;;;;6233468;22;20039;-95
2023/12/04 04:51:15;;;;;;;33.97;14.48;;;;;;;;;;6266053;22;20094;-94
2023/12/04 04:53:51;;;;;;;36.95;14.75;;;;;;;;;;6254106;22;20003;-96
2023/12/04 04:56:29;;;;;;;33.47;14.23;;;;;;;;;;6186672;23;20013;-94
2023/12/04 05:01:59;;;;;;;34.85;14.05;;;;;;;;;;6044896;23;20007;-95
2023/12/04 05:04:35;;;;;;;37.10;14.50;;;;;;;;;;6048253;23;20007;-95
2023/12/04 05:12:52;;;;;;;39.70;14.80;;;;;;;;;;6095088;23;20040;-94
2023/12/04 05:15:25;;;;;;;31.60;14.30;;;;;;;;;;6176448;23;20016;-95
2023/12/04 05:17:54;;;;;;;35.75;14.80;;;;;;;;;;6152362;23;20064;-94
2023/12/04 05:20:20;;;;;;;31.25;13.27;;;;;;;;;;6162421;23;20005;-95
2023/12/04 05:22:52;;;;;;;35.92;14.18;;;;;;;;;;6162816;23;20016;-95
2023/12/04 05:28:00;;;;;;;32.03;12.77;;;;;;;;;;6242005;22;20011;-94
2023/12/04 05:33:45;;;;;;;32.72;13.30;;;;;;;;;;6315977;22;20033;-93
2023/12/04 05:36:35;;;;;;;34.13;13.77;;;;;;;;;;6283216;22;20025;-93
2023/12/04 05:39:08;;;;;;;34.08;14.25;;;;;;;;;;6300132;22;20018;-92
2023/12/04 05:41:34;;;;;;;30.52;13.85;;;;;;;;;;6282214;22;20010;-93
2023/12/04 05:47:25;;;;;;;33.45;13.23;;;;;;;;;;6283794;22;20109;-94
2023/12/04 05:49:55;;;;;;;29.10;12.35;;;;;;;;;;6277373;22;20012;-93
2023/12/04 05:52:31;;;;;;;30.80;13.00;;;;;;;;;;6278032;22;20086;-94
2023/12/04 05:55:23;;;;;;;29.08;12.18;;;;;;;;;;6276915;22;20083;-95
2023/12/04 05:57:55;;;;;;;29.60;13.20;;;;;;;;;;6220763;22;20007;-94
2023/12/04 06:00:25;;;;;;;28.02;12.77;;;;;;;;;;6277071;22;20014;-94
2023/12/04 06:03:06;;;;;;;29.77;13.43;;;;;;;;;;6276801;22;20486;-93
2023/12/04 06:05:35;;;;;;;30.90;13.73;;;;;;;;;;6276690;22;20094;-93
2023/12/04 06:08:31;;;;;;;34.13;13.85;;;;;;;;;;6277006;22;20000;-93
2023/12/04 06:10:57;;;;;;;30.63;12.93;;;;;;;;;;6277079;22;20398;-93
2023/12/04 06:13:24;;;;;;;33.00;12.73;;;;;;;;;;6279361;22;20007;-96
2023/12/04 06:15:53;;;;;;;28.00;12.30;;;;;;;;;;6277998;22;20011;-94
2023/12/04 06:18:25;;;;;;;29.35;12.23;;;;;;;;;;6285330;22;20000;-94
2023/12/04 06:21:52;;;;;;;30.30;11.17;;;;;;;;;;6287421;22;20008;-96
2023/12/04 06:33:44;;;;;;;;;;;;;;;;;;;;;
2023/12/04 06:36:36;;;;;;;;;;;;;;;;;;;;;
2023/12/04 06:39:39;;;;;;;29.30;12.13;;;;;;;;;;6257742;22;20042;-94
2023/12/04 06:41:57;;;;;;;28.35;12.73;;;;;;;;;;6278790;22;20030;-95
2023/12/04 06:44:35;;;;;;;33.22;13.25;;;;;;;;;;6279975;22;20012;-95
2023/12/04 06:47:12;;;;;;;34.97;12.63;;;;;;;;;;6282130;22;20014;-95
2023/12/04 06:49:51;;;;;;;30.65;12.77;;;;;;;;;;6278878;22;20053;-94
2023/12/04 06:52:18;;;;;;;29.65;13.15;;;;;;;;;;6278195;22;20016;-94
2023/12/04 06:54:56;;;;;;;30.35;12.38;;;;;;;;;;6280173;22;20026;-92
2023/12/04 06:57:29;;;;;;;26.00;12.02;;;;;;;;;;6293554;22;20008;-92
2023/12/04 06:59:58;;;;;;;29.35;12.57;;;;;;;;;;6282990;22;20011;-91
2023/12/04 07:02:26;;;;;;;25.52;12.40;;;;;;;;;;6279098;22;20091;-92
2023/12/04 07:05:03;;;;;;;31.17;12.75;;;;;;;;;;6282986;22;20015;-94
2023/12/04 07:19:00;;;;;;;27.85;12.32;;;;;;;;;;6249994;23;20069;-94
2023/12/04 07:21:29;;;;;;;25.15;11.48;;;;;;;;;;6222644;23;20008;-94
2023/12/04 07:35:44;;;;;;;26.15;13.93;;;;;;;;;;6312395;22;20017;-95
2023/12/04 07:38:35;;;;;;;;;;;;;;;;;;;;;
2023/12/04 07:41:01;;;;;;;25.52;15.55;;;;;;;;;;6280982;22;20079;-92
2023/12/04 07:46:44;;;;;;;29.50;17.13;;;;;;;;;;6280442;22;20019;-95
2023/12/04 07:49:22;;;;;;;28.65;17.70;;;;;;;;;;6257254;22;20000;-92
2023/12/04 07:51:51;;;;;;;31.35;18.30;;;;;;;;;;6255913;22;20004;-95
2023/12/04 07:54:29;;;;;;;43.00;21.25;;;;;;;;;;6253992;22;20049;-92
2023/12/04 07:59:56;;;;;;;25.85;16.48;;;;;;;;;;6277325;22;20027;-93
2023/12/04 08:02:25;;;;;;;27.02;17.52;;;;;;;;;;6253284;22;20007;-96
2023/12/04 08:04:57;;;;;;;29.02;18.55;;;;;;;;;;6254541;22;20014;-92
2023/12/04 08:07:26;;;;;;;25.25;17.33;;;;;;;;;;6252106;22;20099;-94
2023/12/04 08:09:55;;;;;;;29.75;20.42;;;;;;;;;;6297996;22;20003;-94
2023/12/04 08:12:30;;;;;;;30.23;20.40;;;;;;;;;;6313095;22;20003;-93
2023/12/04 08:14:56;;;;;;;25.25;18.30;;;;;;;;;;6312610;22;20073;-93
2023/12/04 08:31:37;;;;;;;24.77;18.10;;;;;;;;;;6278878;22;20045;-95
2023/12/04 08:34:21;;;;;;;29.13;21.17;;;;;;;;;;6277350;22;20008;-96
2023/12/04 08:36:47;;;;;;;27.83;21.33;;;;;;;;;;6278300;22;20011;-96
2023/12/04 08:39:38;;;;;;;24.90;19.33;;;;;;;;;;6278360;22;20032;-96
2023/12/04 08:42:31;;;;;;;22.90;17.02;;;;;;;;;;6246607;23;20056;-93
2023/12/04 08:45:08;;;;;;;25.40;18.17;;;;;;;;;;6246322;23;20000;-95
2023/12/04 08:47:41;;;;;;;22.38;16.35;;;;;;;;;;6221426;23;20008;-94
2023/12/04 08:50:25;;;;;;;25.70;18.55;;;;;;;;;;6218243;23;20008;-93
2023/12/04 08:52:51;;;;;;;25.60;16.55;;;;;;;;;;6221797;23;20008;-92
2023/12/04 08:55:34;;;;;;;23.20;15.55;;;;;;;;;;6226667;23;20016;-93
2023/12/04 08:58:15;;;;;;;22.30;14.05;;;;;;;;;;6178184;23;20000;-93
2023/12/04 09:01:04;;;;;;;22.67;13.60;;;;;;;;;;6221803;23;20078;-91
2023/12/04 09:03:56;;;;;;;20.98;13.25;;;;;;;;;;6205050;23;20011;-93
2023/12/04 09:06:22;;;;;;;21.42;13.40;;;;;;;;;;6237113;22;20018;-91
2023/12/04 09:09:07;;;;;;;24.65;13.40;;;;;;;;;;6242584;22;20012;-92
2023/12/04 09:11:59;;;;;;;21.88;14.65;;;;;;;;;;6223515;23;20004;-91
2023/12/04 09:14:31;;;;;;;24.30;14.98;;;;;;;;;;6279199;22;20047;-94
2023/12/04 09:17:03;;;;;;;19.38;12.15;;;;;;;;;;6298462;22;20069;-90
2023/12/04 09:19:29;;;;;;;20.25;12.18;;;;;;;;;;6279275;22;20409;-93
2023/12/04 09:22:08;;;;;;;16.48;10.85;;;;;;;;;;6277745;22;20008;-90
2023/12/04 09:24:40;;;;;;;18.92;11.43;;;;;;;;;;6276241;22;20012;-91
2023/12/04 09:27:12;;;;;;;17.50;11.13;;;;;;;;;;6276859;22;20010;-92
2023/12/04 09:29:38;;;;;;;20.90;12.90;;;;;;;;;;6276868;22;20010;-92
2023/12/04 09:32:11;;;;;;;19.70;12.52;;;;;;;;;;6277043;22;20073;-93
2023/12/04 09:34:52;;;;;;;22.02;13.80;;;;;;;;;;6278129;22;20034;-96
2023/12/04 09:37:18;;;;;;;20.10;13.23;;;;;;;;;;6279170;22;20011;-93
2023/12/04 09:39:51;;;;;;;20.73;13.02;;;;;;;;;;6278145;22;20038;-95
2023/12/04 09:42:30;;;;;;;;;;;;;;;;;;;;;
2023/12/04 09:45:01;;;;;;;25.10;14.50;;;;;;;;;;6278956;22;20387;-90
2023/12/04 09:47:30;;;;;;;25.23;15.35;;;;;;;;;;6276944;22;19999;-92
2023/12/04 09:53:03;;;;;;;24.42;14.65;;;;;;;;;;6278407;22;20015;-92
2023/12/04 09:55:38;;;;;;;24.92;14.10;;;;;;;;;;6275437;22;20034;-92
2023/12/04 09:58:04;;;;;;;23.08;13.93;;;;;;;;;;6273751;22;20075;-92
2023/12/04 10:00:33;;;;;;;22.20;13.45;;;;;;;;;;6276570;22;20019;-94
2023/12/04 10:06:19;;;;;;;24.52;14.20;;;;;;;;;;6275109;22;20326;-93
2023/12/04 10:08:57;;;;;;;21.92;14.38;;;;;;;;;;6281963;22;20024;-94
2023/12/04 10:11:37;;;;;;;22.23;13.25;;;;;;;;;;6232178;22;20034;-96
2023/12/04 10:14:40;;;;;;;23.95;13.73;;;;;;;;;;6250923;23;20004;-95
2023/12/04 10:17:43;;;;;;;20.73;13.20;;;;;;;;;;6250855;23;20070;-92
2023/12/04 10:20:21;;;;;;;22.75;14.07;;;;;;;;;;6264952;23;20052;-93
2023/12/04 10:29:12;;;;;;;24.63;14.23;;;;;;;;;;6247705;23;20014;-92
2023/12/04 10:32:05;;;;;;;22.55;13.63;;;;;;;;;;6246554;23;20442;-94
2023/12/04 10:37:43;;;;;;;22.40;13.68;;;;;;;;;;6155578;23;20013;-94
2023/12/04 10:40:40;;;;;;;24.92;14.43;;;;;;;;;;6153559;23;20088;-93
2023/12/04 10:43:25;;;;;;;22.27;12.90;;;;;;;;;;6132887;23;20006;-94
2023/12/04 10:46:00;;;;;;;22.25;13.48;;;;;;;;;;6130684;23;20014;-92
2023/12/04 10:48:38;;;;;;;18.67;12.32;;;;;;;;;;6136593;23;20022;-92
2023/12/04 10:51:27;;;;;;;22.13;13.67;;;;;;;;;;6138636;23;20052;-95
2023/12/04 10:54:05;;;;;;;19.73;12.70;;;;;;;;;;6130168;23;20019;-92
2023/12/04 11:02:33;;;;;;;22.83;12.98;;;;;;;;;;6198885;23;20039;-93
2023/12/04 11:07:38;;;;;;;21.88;13.25;;;;;;;;;;6212400;22;20054;-92
2023/12/04 11:10:05;;;;;;;20.05;12.95;;;;;;;;;;6249778;23;20079;-92
2023/12/04 11:12:44;;;;;;;20.85;13.02;;;;;;;;;;6244454;23;20027;-92
2023/12/04 11:15:22;;;;;;;22.70;13.23;;;;;;;;;;6255427;23;20019;-92
2023/12/04 11:18:02;;;;;;;24.60;14.13;;;;;;;;;;6244157;23;20012;-92
2023/12/04 11:20:37;;;;;;;25.00;14.15;;;;;;;;;;6246865;23;20004;-91
2023/12/04 11:23:24;;;;;;;23.15;12.90;;;;;;;;;;6246760;23;20008;-94
2023/12/04 11:25:53;;;;;;;22.63;13.38;;;;;;;;;;6220402;23;20004;-94
2023/12/04 11:31:23;;;;;;;27.08;14.23;;;;;;;;;;6224983;22;20031;-92
2023/12/04 11:34:08;;;;;;;24.20;13.40;;;;;;;;;;6247879;23;20090;-95
2023/12/04 11:36:40;;;;;;;22.85;13.25;;;;;;;;;;6248518;23;20063;-96
2023/12/04 11:42:16;;;;;;;25.40;13.13;;;;;;;;;;6256327;22;20011;-95
2023/12/04 11:52:39;;;;;;;49.08;25.10;;;;;;;;;;6207064;22;20019;-92
2023/12/04 11:55:09;;;;;;;24.10;14.82;;;;;;;;;;6254775;23;20028;-96
2023/12/04 11:57:45;;;;;;;25.13;14.63;;;;;;;;;;6253037;23;20004;-96
2023/12/04 12:03:02;;;;;;;32.08;16.85;;;;;;;;;;6225839;22;20020;-94
2023/12/04 12:05:28;;;;;;;24.60;13.80;;;;;;;;;;6247868;23;20035;-91
2023/12/04 12:08:06;;;;;;;25.13;14.48;;;;;;;;;;6248458;23;20000;-93
2023/12/04 12:10:35;;;;;;;23.88;13.18;;;;;;;;;;6253318;23;20004;-94
2023/12/04 12:18:28;;;;;;;21.23;12.27;;;;;;;;;;6250017;22;20023;-90
2023/12/04 12:20:58;;;;;;;27.05;16.08;;;;;;;;;;6228446;23;20004;-91
2023/12/04 12:23:43;;;;;;;32.03;15.65;;;;;;;;;;6233930;23;20004;-92
2023/12/04 12:26:12;;;;;;;24.33;14.18;;;;;;;;;;6228117;23;20056;-93
2023/12/04 12:28:45;;;;;;;24.80;13.23;;;;;;;;;;6227660;23;20008;-92
2023/12/04 12:31:14;;;;;;;25.15;13.95;;;;;;;;;;6231847;23;20086;-91
2023/12/04 12:33:46;;;;;;;29.83;15.30;;;;;;;;;;6223825;23;20000;-90
2023/12/04 12:36:17;;;;;;;24.58;13.00;;;;;;;;;;6226014;23;20012;-96
2023/12/04 12:42:11;;;;;;;25.70;12.13;;;;;;;;;;6271693;22;20015;-92
2023/12/04 12:44:42;;;;;;;22.25;12.30;;;;;;;;;;6240459;22;20070;-95
2023/12/04 12:47:18;;;;;;;21.23;12.60;;;;;;;;;;6231498;23;20000;-94
2023/12/04 12:53:00;;;;;;;24.23;12.90;;;;;;;;;;6250843;23;20118;-96
2023/12/04 12:58:20;;;;;;;25.30;12.93;;;;;;;;;;6290215;22;20026;-92
2023/12/04 13:01:03;;;;;;;22.90;12.82;;;;;;;;;;6274541;22;20000;-93
2023/12/04 13:03:34;;;;;;;22.33;12.93;;;;;;;;;;6282324;22;20004;-91
2023/12/04 13:06:06;;;;;;;25.88;13.00;;;;;;;;;;6249440;23;20011;-91
2023/12/04 13:08:32;;;;;;;22.40;12.38;;;;;;;;;;6245978;23;20037;-92
2023/12/04 13:14:07;;;;;;;19.90;12.48;;;;;;;;;;6253730;23;20031;-95
2023/12/04 13:16:39;;;;;;;21.73;12.68;;;;;;;;;;6249580;23;20075;-91
2023/12/04 13:19:11;;;;;;;24.17;12.82;;;;;;;;;;6248718;23;20515;-94
2023/12/04 13:21:38;;;;;;;21.02;12.13;;;;;;;;;;6253151;22;20005;-96
2023/12/04 13:24:09;;;;;;;25.45;12.38;;;;;;;;;;6249343;23;20377;-94
2023/12/04 13:26:47;;;;;;;23.38;12.60;;;;;;;;;;6230305;23;20008;-94
2023/12/04 13:29:17;;;;;;;23.30;12.65;;;;;;;;;;6247461;23;20004;-93
2023/12/04 13:31:49;;;;;;;22.33;13.02;;;;;;;;;;6247643;23;20000;-94
2023/12/04 13:34:18;;;;;;;27.02;13.57;;;;;;;;;;6246160;23;20046;-92
2023/12/04 13:36:47;;;;;;;25.90;13.27;;;;;;;;;;6214401;23;20075;-92
2023/12/04 13:39:36;;;;;;;26.63;13.65;;;;;;;;;;6240585;23;20001;-93
2023/12/04 13:44:58;;;;;;;26.33;13.52;;;;;;;;;;6215582;23;20070;-93
2023/12/04 13:47:36;;;;;;;25.85;13.80;;;;;;;;;;6240924;23;20001;-93
2023/12/04 13:50:22;;;;;;;25.42;13.95;;;;;;;;;;6244744;23;20039;-93
2023/12/04 13:53:00;;;;;;;23.60;13.05;;;;;;;;;;6226172;23;20446;-91
2023/12/04 14:04:12;;;;;;;27.00;11.80;;;;;;;;;;6125433;23;20028;-93
2023/12/04 14:06:41;;;;;;;24.95;13.13;;;;;;;;;;6100765;23;20013;-91
2023/12/04 14:31:01;;;;;;;22.80;11.55;;;;;;;;;;6014658;23;20015;-94
2023/12/04 14:36:47;;;;;;;21.17;12.30;;;;;;;;;;6102392;23;20555;-92
2023/12/04 14:39:21;;;;;;;22.15;11.43;;;;;;;;;;6191555;23;20051;-92
2023/12/04 14:45:03;;;;;;;23.75;12.27;;;;;;;;;;6186342;23;20089;-96
2023/12/04 14:47:32;;;;;;;25.10;13.02;;;;;;;;;;6195150;23;20002;-90
2023/12/04 14:50:01;;;;;;;30.80;14.15;;;;;;;;;;6188639;23;20521;-96
2023/12/04 14:52:50;;;;;;;31.88;15.02;;;;;;;;;;6157189;23;20009;-94
2023/12/04 15:05:18;;;;;;;31.85;16.25;;;;;;;;;;6073684;23;20034;-94
2023/12/04 15:32:27;;;;;;;22.27;12.27;;;;;;;;;;6260241;22;20050;-95
2023/12/04 15:51:35;;;;;;;22.65;11.77;;;;;;;;;;6263022;23;20081;-96
2023/12/04 15:57:27;;;;;;;23.95;11.02;;;;;;;;;;6259942;23;20077;-95
2023/12/04 16:02:38;;;;;;;21.80;11.07;;;;;;;;;;6269436;22;19910;-92
2023/12/04 16:07:53;;;;;;;28.02;14.15;;;;;;;;;;6252477;22;20020;-94
2023/12/04 16:10:22;;;;;;;22.83;12.13;;;;;;;;;;6232195;23;20004;-92
2023/12/04 16:19:19;;;;;;;21.70;11.33;;;;;;;;;;6252651;23;20031;-94
2023/12/04 16:25:07;;;;;;;31.10;12.45;;;;;;;;;;6208411;23;20091;-96
2023/12/04 16:27:39;;;;;;;75.25;25.35;;;;;;;;;;6225464;23;20497;-91
2023/12/04 16:37:26;;;;;;;24.75;11.85;;;;;;;;;;6135628;23;20022;-94
2023/12/04 16:53:52;;;;;;;20.65;10.55;;;;;;;;;;6275883;22;20043;-96
2023/12/04 16:56:20;;;;;;;21.60;10.98;;;;;;;;;;6253644;22;20023;-95
2023/12/04 16:58:58;;;;;;;19.70;10.80;;;;;;;;;;6256812;22;20446;-91
2023/12/04 17:04:37;;;;;;;21.17;11.80;;;;;;;;;;6248426;23;20008;-93
2023/12/04 17:07:28;;;;;;;;;;;;;;;;;;;;;
2023/12/04 17:10:13;;;;;;;22.05;11.48;;;;;;;;;;6189659;23;20024;-95
2023/12/04 17:21:42;;;;;;;28.92;14.13;;;;;;;;;;6071524;23;20014;-94
2023/12/04 17:27:38;;;;;;;31.58;15.00;;;;;;;;;;6073015;23;20017;-96
2023/12/04 17:30:36;;;;;;;35.13;16.83;;;;;;;;;;6070397;23;20007;-93
2023/12/04 17:35:52;;;;;;;31.55;15.13;;;;;;;;;;6256079;22;20035;-94
2023/12/04 17:38:50;;;;;;;33.08;15.70;;;;;;;;;;6230497;23;20061;-96
2023/12/04 17:41:34;;;;;;;25.38;12.65;;;;;;;;;;6224961;23;20011;-96
2023/12/04 17:53:42;;;;;;;30.52;15.05;;;;;;;;;;6127924;23;20068;-91
2023/12/04 17:59:58;;;;;;;31.45;13.95;;;;;;;;;;6257122;23;20027;-96
2023/12/04 18:15:42;;;;;;;32.60;15.80;;;;;;;;;;6281166;22;20023;-95
2023/12/04 18:21:20;;;;;;;29.48;13.80;;;;;;;;;;6291324;22;20064;-96
2023/12/04 18:27:03;;;;;;;28.23;13.68;;;;;;;;;;6219242;22;20075;-89
2023/12/04 18:32:34;;;;;;;27.63;13.77;;;;;;;;;;6258084;22;20073;-90
2023/12/04 18:35:28;;;;;;;27.07;14.57;;;;;;;;;;6219031;23;20000;-95
2023/12/04 18:38:13;;;;;;;;;;;;;;;;;;6262822;22;20020;-95
2023/12/04 18:43:15;;;;;;;29.20;12.70;;;;;;;;;;6278115;22;20043;-92
2023/12/04 18:46:23;;;;;;;24.05;13.43;;;;;;;;;;6253381;23;20046;-96
2023/12/04 19:24:24;;;;;;;25.58;12.48;;;;;;;;;;6216888;22;20985;-88
2023/12/04 19:35:16;;;;;;;22.35;11.95;;;;;;;;;;6273525;22;20024;-92
2023/12/04 19:37:57;;;;;;;22.00;11.55;;;;;;;;;;6283379;22;20511;-96
2023/12/04 19:40:41;;;;;;;27.25;12.98;;;;;;;;;;6279001;22;20003;-94
2023/12/04 19:43:13;;;;;;;24.35;12.68;;;;;;;;;;6259812;22;20035;-94
2023/12/04 19:45:46;;;;;;;26.23;13.25;;;;;;;;;;6263293;22;20004;-92
2023/12/04 19:48:21;;;;;;;25.90;12.77;;;;;;;;;;6265109;22;20008;-94
2023/12/04 19:50:51;;;;;;;26.38;14.27;;;;;;;;;;6252849;22;20031;-92
2023/12/04 19:53:51;;;;;;;24.95;12.85;;;;;;;;;;6253023;22;20393;-92
2023/12/04 19:56:32;;;;;;;24.23;12.55;;;;;;;;;;6252064;22;20015;-92
2023/12/04 20:05:32;;;;;;;25.52;12.20;;;;;;;;;;6289878;22;20359;-90
2023/12/04 20:10:39;;;;;;;24.90;13.00;;;;;;;;;;6250833;22;20568;-96
2023/12/04 20:18:50;;;;;;;28.67;12.77;;;;;;;;;;6266270;22;20047;-91
2023/12/04 20:24:28;;;;;;;27.05;13.00;;;;;;;;;;6240457;22;20027;-90
2023/12/04 20:39:14;;;;;;;28.40;13.77;;;;;;;;;;6105657;23;20022;-93
2023/12/04 20:51:08;;;;;;;30.88;14.73;;;;;;;;;;6239586;23;20019;-94
2023/12/04 20:53:40;;;;;;;30.08;14.50;;;;;;;;;;6231366;23;20015;-94
2023/12/04 20:56:22;;;;;;;29.80;13.98;;;;;;;;;;6235772;23;20020;-95
2023/12/04 20:58:48;;;;;;;26.98;13.55;;;;;;;;;;6235710;23;20004;-94
2023/12/04 21:01:42;;;;;;;30.80;15.93;;;;;;;;;;6227770;23;20004;-95
2023/12/04 21:04:23;;;;;;;32.42;16.10;;;;;;;;;;6263437;22;20020;-96
2023/12/04 21:06:49;;;;;;;30.17;14.90;;;;;;;;;;6225941;23;20075;-92
2023/12/04 21:09:22;;;;;;;31.15;15.90;;;;;;;;;;6241765;22;20383;-93
2023/12/04 21:11:50;;;;;;;32.85;15.30;;;;;;;;;;6253232;23;20004;-93
2023/12/04 21:16:52;;;;;;;33.03;16.60;;;;;;;;;;6249188;22;20238;-95
2023/12/04 21:19:21;;;;;;;30.80;15.75;;;;;;;;;;6235391;22;20031;-92
2023/12/04 21:30:42;;;;;;;37.53;17.63;;;;;;;;;;6251073;22;20349;-95
2023/12/04 21:36:04;;;;;;;32.53;16.65;;;;;;;;;;6222181;23;20095;-92
2023/12/04 21:43:58;;;;;;;30.42;15.30;;;;;;;;;;6222937;23;20028;-93
2023/12/04 21:46:45;;;;;;;32.20;16.90;;;;;;;;;;6225923;23;20009;-93
2023/12/04 21:49:10;;;;;;;27.92;13.23;;;;;;;;;;6230540;23;20008;-93
2023/12/04 21:54:25;;;;;;;29.60;14.88;;;;;;;;;;6214159;22;20031;-95
2023/12/04 22:09:54;;;;;;;28.58;14.43;;;;;;;;;;6296058;22;20019;-92
2023/12/04 22:12:42;;;;;;;35.33;16.05;;;;;;;;;;6241310;22;20067;-93
2023/12/04 22:23:58;;;;;;;31.02;15.52;;;;;;;;;;6230797;22;21392;31
2023/12/04 22:29:20;;;;;;;37.10;16.65;;;;;;;;;;6245519;22;20065;31
2023/12/04 22:31:47;;;;;;;32.72;16.45;;;;;;;;;;6253786;22;20079;31
2023/12/04 22:34:16;;;;;;;33.10;16.17;;;;;;;;;;6228442;22;20021;-95
2023/12/04 22:39:23;;;;;;;30.48;16.25;;;;;;;;;;6257175;23;20357;-94
2023/12/04 22:41:49;;;;;;;34.83;16.33;;;;;;;;;;6213639;23;20005;-94
2023/12/04 22:46:54;;;;;;;31.88;16.23;;;;;;;;;;6267287;22;20008;-94
2023/12/04 22:52:02;;;;;;;32.83;15.95;;;;;;;;;;6262676;22;20042;-94
2023/12/04 22:54:46;;;;;;;36.88;16.42;;;;;;;;;;6234887;22;20008;-93
2023/12/04 22:57:15;;;;;;;37.78;16.95;;;;;;;;;;6231725;23;20445;-93
2023/12/04 22:59:45;;;;;;;34.85;16.27;;;;;;;;;;6232060;23;20004;-93
2023/12/04 23:02:30;;;;;;;30.85;15.25;;;;;;;;;;6242648;22;20008;-94
2023/12/04 23:04:57;;;;;;;34.30;16.85;;;;;;;;;;6251684;22;20060;-93
2023/12/04 23:07:26;;;;;;;36.33;17.98;;;;;;;;;;6222032;23;20008;-94
2023/12/04 23:09:59;;;;;;;29.63;16.92;;;;;;;;;;6222059;23;20486;-94
2023/12/04 23:12:49;;;;;;;38.47;17.27;;;;;;;;;;6219517;23;20012;-95
2023/12/04 23:15:39;;;;;;;38.50;16.48;;;;;;;;;;6221106;23;20489;-96
2023/12/04 23:18:09;;;;;;;35.53;16.73;;;;;;;;;;6222610;23;20009;-95
2023/12/04 23:20:35;;;;;;;34.28;16.73;;;;;;;;;;6224809;22;20030;-94
2023/12/04 23:23:08;;;;;;;36.38;17.05;;;;;;;;;;6258705;22;20039;-94
2023/12/04 23:25:41;;;;;;;27.95;13.77;;;;;;;;;;6258884;22;20049;-94
2023/12/04 23:28:07;;;;;;;31.10;15.48;;;;;;;;;;6247435;22;20072;-94
2023/12/04 23:33:16;;;;;;;31.73;16.10;;;;;;;;;;6252790;22;20065;-93
2023/12/04 23:35:48;;;;;;;27.90;13.60;;;;;;;;;;6234484;23;20012;-92
2023/12/04 23:41:24;;;;;;;33.15;16.95;;;;;;;;;;6261543;22;20484;-92
2023/12/04 23:49:08;;;;;;;36.08;16.98;;;;;;;;;;6257121;22;20024;-94
2023/12/04 23:51:53;;;;;;;35.53;16.25;;;;;;;;;;6227146;23;20004;-94
